Time;durP1;ratioP1;P1;durP2;ratioP2;P2;SDS_P1;SDS_P2;PMS_P1;PMS_P2;Temp;Humidity;BMP_temperature;BMP_pressure;BME280_temperature;BME280_humidity;BME280_pressure;Samples;Min_cycle;Max_cycle;Signal;HPM_P1;HPM_P2
2021/04/11 00:02:08;;;;;;;31.30;18.75;;;;;;;2.67;85.59;101989.35;1798447;79;21098;-90
2021/04/11 00:04:37;;;;;;;33.18;21.77;;;;;;;2.67;86.25;101993.66;1765335;81;21080;-90
2021/04/11 00:07:07;;;;;;;35.55;20.90;;;;;;;2.65;85.99;101995.41;1798512;79;21134;-90
2021/04/11 00:09:35;;;;;;;28.20;18.02;;;;;;;2.58;85.96;101993.39;1765307;81;21342;-90
2021/04/11 00:12:03;;;;;;;27.05;17.77;;;;;;;2.56;87.79;101996.88;1798230;79;21123;-91
2021/04/11 00:14:33;;;;;;;30.65;19.73;;;;;;;2.55;88.29;101999.03;1789195;79;21127;-90
2021/04/11 00:17:05;;;;;;;38.42;23.65;;;;;;;2.57;87.64;102008.86;1796341;79;21160;-90
2021/04/11 00:19:35;;;;;;;37.28;23.52;;;;;;;2.50;88.44;102011.97;1796314;79;21150;-90
2021/04/11 00:22:31;;;;;;;40.60;24.90;;;;;;;2.36;89.99;102018.23;1796364;79;21550;-90
2021/04/11 00:25:01;;;;;;;38.33;21.93;;;;;;;2.22;91.71;102025.34;1792921;80;21575;-90
2021/04/11 00:27:29;;;;;;;40.63;23.65;;;;;;;2.03;93.87;102028.67;1802704;79;21107;-90
2021/04/11 00:30:30;;;;;;;38.48;22.80;;;;;;;1.87;95.81;102030.20;1802730;79;21491;-90
2021/04/11 00:33:01;;;;;;;33.92;21.77;;;;;;;1.74;98.08;102029.97;1824735;78;21135;-90
2021/04/11 00:35:30;;;;;;;35.65;21.68;;;;;;;1.64;100.00;102029.27;1825890;78;22268;-90
2021/04/11 00:38:00;;;;;;;29.30;18.37;;;;;;;1.61;100.00;102033.60;1813614;78;21155;-90
2021/04/11 00:40:33;;;;;;;27.15;17.98;;;;;;;1.56;100.00;102030.65;1786206;80;21163;-90
2021/04/11 00:43:10;;;;;;;28.67;16.67;;;;;;;1.56;100.00;102032.38;1786109;80;21131;-90
2021/04/11 00:46:00;;;;;;;28.20;18.40;;;;;;;1.60;100.00;102031.91;1786156;80;21127;-90
2021/04/11 00:48:32;;;;;;;30.27;20.05;;;;;;;1.59;100.00;102031.06;1782222;80;21143;-90
2021/04/11 00:51:12;;;;;;;38.38;21.55;;;;;;;1.59;100.00;102041.34;1786130;80;21131;-90
2021/04/11 00:53:43;;;;;;;34.55;21.97;;;;;;;1.54;100.00;102045.67;1783850;80;21155;-90
2021/04/11 00:56:14;;;;;;;34.85;22.00;;;;;;;1.51;100.00;102043.16;1786315;80;21135;-90
2021/04/11 00:58:45;;;;;;;38.63;25.65;;;;;;;1.51;100.00;102042.72;1786281;80;21076;-90
2021/04/11 01:01:15;;;;;;;40.08;26.20;;;;;;;1.49;100.00;102038.48;1786464;80;21211;-90
2021/04/11 01:03:45;;;;;;;36.53;22.73;;;;;;;1.47;100.00;102040.21;1786093;80;21544;-89
2021/04/11 01:06:16;;;;;;;39.40;23.87;;;;;;;1.45;100.00;102038.96;1786249;80;21139;-90
2021/04/11 01:08:52;;;;;;;42.27;22.02;;;;;;;1.46;100.00;102036.81;1785099;80;21151;-90
2021/04/11 01:11:29;;;;;;;31.30;21.35;;;;;;;1.50;100.00;102034.59;1793541;80;21926;-90
2021/04/11 01:14:08;;;;;;;35.98;21.55;;;;;;;1.53;100.00;102035.84;1790884;80;21604;-90
2021/04/11 01:16:39;;;;;;;39.18;24.02;;;;;;;1.55;100.00;102030.27;1793472;80;21899;-90
2021/04/11 01:19:13;;;;;;;35.45;21.95;;;;;;;1.56;100.00;102029.37;1793557;80;21142;-90
2021/04/11 01:21:57;;;;;;;44.00;24.43;;;;;;;1.57;100.00;102031.52;1793542;80;21567;-90
2021/04/11 01:24:44;;;;;;;38.80;23.75;;;;;;;1.60;100.00;102033.19;1788836;80;21107;-90
2021/04/11 01:27:18;;;;;;;45.03;26.30;;;;;;;1.61;100.00;102030.58;1793563;80;21499;-90
2021/04/11 01:29:52;;;;;;;36.00;22.82;;;;;;;1.61;100.00;102024.61;1790094;80;21185;-90
2021/04/11 01:32:21;;;;;;;35.45;22.00;;;;;;;1.59;100.00;102027.22;1761073;80;21187;-90
2021/04/11 01:34:57;;;;;;;36.55;22.15;;;;;;;1.57;100.00;102025.09;1778461;80;21164;-90
2021/04/11 01:37:28;;;;;;;31.50;19.27;;;;;;;1.60;100.00;102025.06;1752862;80;21121;-91
2021/04/11 01:40:08;;;;;;;31.12;20.77;;;;;;;1.63;100.00;102019.86;1778682;80;21375;-90
2021/04/11 01:42:36;;;;;;;29.98;17.50;;;;;;;1.65;100.00;102023.68;1778580;80;21151;-91
2021/04/11 01:45:06;;;;;;;30.50;18.23;;;;;;;1.66;100.00;102025.38;1778586;80;21064;-90
2021/04/11 01:47:35;;;;;;;29.67;19.07;;;;;;;1.62;100.00;102027.60;1776805;80;21136;-90
2021/04/11 01:50:10;;;;;;;27.90;17.82;;;;;;;1.56;100.00;102034.50;1745188;81;21147;-91
2021/04/11 01:52:41;;;;;;;29.63;18.12;;;;;;;1.52;100.00;102038.00;1734506;82;21387;-91
2021/04/11 01:55:14;;;;;;;25.92;16.05;;;;;;;1.48;100.00;102041.91;1734522;82;21158;-90
2021/04/11 01:57:51;;;;;;;27.07;17.92;;;;;;;1.47;100.00;102043.64;1766284;80;21158;-90
2021/04/11 02:00:49;;;;;;;29.90;18.92;;;;;;;1.51;100.00;102042.72;1788976;80;21602;-90
2021/04/11 02:03:28;;;;;;;36.20;21.15;;;;;;;1.57;100.00;102043.91;1889088;76;22730;-90
2021/04/11 02:06:07;;;;;;;33.85;22.15;;;;;;;1.53;100.00;102042.69;1860060;77;22063;-90
2021/04/11 02:08:40;;;;;;;38.10;23.22;;;;;;;1.48;100.00;102045.77;1857592;77;21374;-91
2021/04/11 02:11:08;;;;;;;37.13;23.92;;;;;;;1.37;100.00;102042.91;1855155;77;21187;-90
2021/04/11 02:13:40;;;;;;;38.17;22.48;;;;;;;1.26;100.00;102049.47;1860238;77;20954;-90
2021/04/11 02:16:24;;;;;;;39.15;21.82;;;;;;;1.19;100.00;102047.86;1854939;77;21204;-91
2021/04/11 02:19:02;;;;;;;33.92;21.50;;;;;;;1.14;100.00;102046.20;1852995;77;21175;-90
2021/04/11 02:21:31;;;;;;;28.52;18.82;;;;;;;1.11;100.00;102050.95;1860012;77;22422;-90
2021/04/11 02:24:09;;;;;;;75.92;37.17;;;;;;;1.12;100.00;102041.11;1860019;77;21129;-92
2021/04/11 02:26:40;;;;;;;57.62;30.00;;;;;;;1.13;100.00;102040.23;1860048;77;21144;-91
2021/04/11 02:29:16;;;;;;;114.37;50.78;;;;;;;1.10;100.00;102036.42;1858116;76;27095;-91
2021/04/11 02:31:47;;;;;;;60.85;29.90;;;;;;;1.05;100.00;102043.34;1837702;77;21112;-91
2021/04/11 02:34:28;;;;;;;46.42;24.07;;;;;;;0.97;100.00;102037.45;1840595;77;21199;-91
2021/04/11 02:37:21;;;;;;;37.90;21.73;;;;;;;0.93;100.00;102041.32;1860003;77;21104;-91
2021/04/11 02:39:56;;;;;;;38.85;22.32;;;;;;;0.93;100.00;102043.05;1826406;78;21132;-90
2021/04/11 02:42:34;;;;;;;34.10;20.70;;;;;;;0.94;100.00;102046.03;1822747;78;21568;-91
2021/04/11 02:45:11;;;;;;;36.58;20.08;;;;;;;0.98;100.00;102054.55;1823303;78;21045;-91
2021/04/11 02:47:41;;;;;;;35.33;21.20;;;;;;;1.04;100.00;102057.03;1821714;78;22335;-90
2021/04/11 02:50:12;;;;;;;39.42;21.50;;;;;;;1.08;100.00;102061.27;1801729;78;21132;-91
2021/04/11 02:52:46;;;;;;;37.28;22.48;;;;;;;1.09;100.00;102072.78;1789677;78;21128;-90
2021/04/11 02:55:18;;;;;;;38.02;22.62;;;;;;;1.07;100.00;102068.55;1820864;78;21144;-90
2021/04/11 02:57:55;;;;;;;;;;;;;;;1.06;100.00;102077.11;1827580;77;21544;-90
2021/04/11 03:03:56;;;;;;;39.58;24.32;;;;;;;0.85;100.00;102073.91;1812390;78;21540;-91
2021/04/11 03:06:33;;;;;;;38.80;24.85;;;;;;;0.73;100.00;102062.51;1785033;79;21087;-91
2021/04/11 03:09:31;;;;;;;60.75;27.45;;;;;;;0.65;100.00;102055.33;1811864;79;21175;-92
2021/04/11 03:12:00;;;;;;;52.48;25.88;;;;;;;0.60;100.00;102051.53;1812206;79;21578;-92
2021/04/11 03:14:36;;;;;;;41.68;24.27;;;;;;;0.49;100.00;102049.50;1813874;77;22112;-89
2021/04/11 03:17:11;;;;;;;42.62;23.07;;;;;;;0.41;100.00;102052.98;1851815;77;21550;-91
2021/04/11 03:20:27;;;;;;;43.92;24.77;;;;;;;0.38;100.00;102049.61;1846142;77;21580;-91
2021/04/11 03:23:26;;;;;;;43.58;24.70;;;;;;;0.40;100.00;102055.57;1837889;77;21565;-89
2021/04/11 03:26:32;;;;;;;45.83;25.35;;;;;;;0.43;100.00;102049.15;1814634;78;21113;-90
2021/04/11 03:32:38;;;;;;;;;;;;;;;0.45;100.00;102044.83;1841427;77;21152;-89
2021/04/11 03:35:19;;;;;;;32.83;18.52;;;;;;;0.38;100.00;102049.19;1815460;78;20255;-90
2021/04/11 03:37:50;;;;;;;33.70;19.25;;;;;;;0.39;100.00;102053.45;1818767;78;21160;-91
2021/04/11 03:40:30;;;;;;;32.28;20.48;;;;;;;0.45;100.00;102047.39;1818676;78;21124;-90
2021/04/11 03:46:39;;;;;;;32.15;20.77;;;;;;;0.60;100.00;102061.78;1745356;82;21167;-92
2021/04/11 03:53:10;;;;;;;38.48;24.10;;;;;;;0.69;100.00;102077.08;1761180;81;21181;-91
2021/04/11 03:55:44;;;;;;;38.78;24.55;;;;;;;0.67;100.00;102081.81;1758830;81;21149;-90
2021/04/11 03:58:23;;;;;;;36.83;22.70;;;;;;;0.68;100.00;102084.35;1760901;81;21562;-91
2021/04/11 04:00:58;;;;;;;41.23;24.95;;;;;;;0.70;100.00;102086.48;1764116;80;21576;-87
2021/04/11 04:03:32;;;;;;;33.38;22.60;;;;;;;0.73;100.00;102098.41;1818788;78;21067;-88
2021/04/11 04:06:27;;;;;;;36.10;23.83;;;;;;;0.75;100.00;102097.97;1811955;77;21160;-89
2021/04/11 04:08:58;;;;;;;33.55;22.95;;;;;;;0.80;100.00;102109.02;1777173;79;21171;-89
2021/04/11 04:11:51;;;;;;;39.18;21.57;;;;;;;0.89;100.00;102113.19;1805674;77;21386;-89
2021/04/11 04:14:47;;;;;;;46.55;21.77;;;;;;;0.98;100.00;102112.27;1824657;77;21139;-89
2021/04/11 04:21:57;;;;;;;83.52;21.62;;;;;;;1.21;100.00;102119.68;1812225;78;21604;-93
2021/04/11 04:28:43;;;;;;;46.23;21.52;;;;;;;2.35;100.00;102127.53;1827400;78;21370;-91
2021/04/11 04:31:20;;;;;;;35.98;20.95;;;;;;;2.97;100.00;102118.72;1792341;79;21560;-91
2021/04/11 04:34:10;;;;;;;37.33;20.70;;;;;;;3.32;100.00;102121.05;1781621;78;21168;-89
2021/04/11 04:37:27;;;;;;;31.77;20.68;;;;;;;3.59;100.00;102115.75;1765114;77;22109;-89
2021/04/11 04:40:13;;;;;;;40.40;23.27;;;;;;;3.89;100.00;102120.22;1830811;78;22079;-89
2021/04/11 04:42:52;;;;;;;39.38;23.77;;;;;;;4.19;100.00;102117.83;1775037;79;22124;-89
2021/04/11 04:45:48;;;;;;;43.95;23.55;;;;;;;4.46;100.00;102122.74;1824528;78;21190;-89
2021/04/11 04:48:40;;;;;;;35.17;22.48;;;;;;;4.65;100.00;102119.24;1775434;79;21199;-89
2021/04/11 04:51:46;;;;;;;40.67;22.45;;;;;;;4.78;100.00;102121.06;1783746;79;21165;-89
2021/04/11 04:54:35;;;;;;;45.25;24.12;;;;;;;4.90;100.00;102112.14;1746745;79;21114;-89
2021/04/11 04:57:13;;;;;;;44.93;24.43;;;;;;;5.10;100.00;102108.14;1747985;79;21385;-89
2021/04/11 04:59:53;;;;;;;38.73;23.07;;;;;;;5.31;100.00;102110.13;1769029;79;21567;-89
2021/04/11 05:02:26;;;;;;;35.50;21.73;;;;;;;5.44;100.00;102111.91;1803656;77;21605;-89
2021/04/11 05:05:00;;;;;;;29.63;19.48;;;;;;;5.52;100.00;102101.33;1812960;77;21940;-89
2021/04/11 05:12:08;;;;;;;30.55;18.10;;;;;;;5.72;100.00;102103.77;1779485;80;25517;-89
2021/04/11 05:15:06;;;;;;;27.22;17.05;;;;;;;5.92;100.00;102104.44;1749712;80;21183;-88
2021/04/11 05:17:40;;;;;;;26.07;17.35;;;;;;;6.05;100.00;102098.47;1776281;80;21148;-89
2021/04/11 05:20:18;;;;;;;27.62;17.07;;;;;;;6.19;100.00;102093.68;1773307;80;21188;-88
2021/04/11 05:23:11;;;;;;;20.75;15.43;;;;;;;6.30;94.70;102094.16;1757501;81;21171;-89
2021/04/11 05:26:13;;;;;;;30.70;17.02;;;;;;;6.44;97.55;102087.69;1774856;80;21363;-88
2021/04/11 05:29:07;;;;;;;29.30;16.55;;;;;;;6.58;97.59;102085.46;1756179;81;21108;-89
2021/04/11 05:31:38;;;;;;;23.22;15.48;;;;;;;6.74;94.42;102079.28;1757279;80;21132;-89
2021/04/11 05:34:11;;;;;;;24.15;15.18;;;;;;;6.89;88.49;102081.78;1810039;77;21212;-89
2021/04/11 05:37:03;;;;;;;20.82;14.13;;;;;;;7.01;83.99;102077.90;1793533;78;21180;-90
2021/04/11 05:39:57;;;;;;;22.60;14.38;;;;;;;7.14;81.61;102078.72;1784462;80;21370;-89
2021/04/11 05:42:39;;;;;;;21.97;14.13;;;;;;;7.28;77.37;102079.51;1795075;78;21140;-89
2021/04/11 05:45:27;;;;;;;20.92;14.13;;;;;;;7.45;71.30;102084.90;1783328;80;21542;-89
2021/04/11 05:48:06;;;;;;;24.82;14.45;;;;;;;7.61;69.97;102084.30;1796634;77;21160;-89
2021/04/11 05:51:01;;;;;;;25.75;15.50;;;;;;;7.77;69.70;102081.97;1755217;81;21186;-89
2021/04/11 05:53:58;;;;;;;23.77;14.30;;;;;;;7.93;68.86;102086.07;1762851;80;21444;-91
2021/04/11 05:56:37;;;;;;;20.23;14.05;;;;;;;8.12;66.10;102085.72;1802235;78;21542;-89
2021/04/11 05:59:48;;;;;;;22.37;14.23;;;;;;;8.30;64.19;102078.05;1821828;77;21175;-88
2021/04/11 06:02:45;;;;;;;27.17;15.03;;;;;;;8.47;61.83;102079.52;1765430;80;21207;-88
2021/04/11 06:05:22;;;;;;;23.30;15.63;;;;;;;8.64;58.37;102077.50;1758683;80;21214;-88
2021/04/11 06:08:15;;;;;;;37.25;20.30;;;;;;;8.80;55.29;102077.66;1780681;80;22308;-88
2021/04/11 06:11:08;;;;;;;28.05;15.00;;;;;;;8.93;54.92;102077.95;1792399;78;21647;-89
2021/04/11 06:14:15;;;;;;;24.05;13.50;;;;;;;9.08;55.34;102084.23;1785435;80;21172;-89
2021/04/11 06:16:45;;;;;;;24.40;13.08;;;;;;;9.25;53.20;102087.34;1789016;80;21132;-90
2021/04/11 06:19:14;;;;;;;20.55;12.25;;;;;;;9.43;53.41;102086.11;1806016;78;21115;-89
2021/04/11 06:22:05;;;;;;;33.45;16.10;;;;;;;9.58;54.03;102085.83;1785654;78;21191;-90
2021/04/11 06:25:07;;;;;;;21.82;11.53;;;;;;;9.70;52.71;102081.36;1767519;80;21170;-90
2021/04/11 06:27:51;;;;;;;17.32;11.00;;;;;;;9.87;50.41;102087.50;1752697;81;21195;-89
2021/04/11 06:30:29;;;;;;;21.45;13.05;;;;;;;10.04;48.65;102083.63;1754299;81;21155;-88
2021/04/11 06:33:15;;;;;;;21.65;10.98;;;;;;;10.21;48.43;102091.88;1754925;80;21170;-89
2021/04/11 06:35:51;;;;;;;15.28;11.57;;;;;;;10.33;46.58;102082.61;1770511;80;21540;-89
2021/04/11 06:47:20;;;;;;;20.48;12.15;;;;;;;10.47;45.10;102100.17;1807411;78;21170;-89
2021/04/11 06:58:10;;;;;;;18.02;12.93;;;;;;;10.55;43.66;102078.93;1756888;81;21138;-88
2021/04/11 07:09:24;;;;;;;19.05;12.58;;;;;;;10.93;44.22;102063.51;1789797;80;21562;-88
2021/04/11 07:20:49;;;;;;;20.23;13.55;;;;;;;11.52;41.19;102063.77;1789776;80;21195;-88
2021/04/11 07:31:57;;;;;;;28.47;14.30;;;;;;;11.77;40.64;102056.70;1802846;78;21577;-89
2021/04/11 07:43:28;;;;;;;19.20;12.82;;;;;;;12.10;38.84;102046.55;1805678;77;21149;-88
2021/04/11 07:54:23;;;;;;;17.80;12.98;;;;;;;12.42;38.66;102056.84;1804347;77;21145;-87
2021/04/11 08:01:42;;;;;;;14.70;11.85;;;;;;;12.47;36.67;102052.66;1797685;77;21152;-88
2021/04/11 08:12:50;;;;;;;15.83;11.55;;;;;;;12.67;38.11;102021.88;1794933;78;21558;-86
2021/04/11 08:24:26;;;;;;;18.17;13.10;;;;;;;13.03;35.33;102010.89;1854438;77;21081;-87
2021/04/11 08:31:18;;;;;;;17.02;13.15;;;;;;;13.15;34.83;101980.50;1859590;76;21096;-90
2021/04/11 08:42:32;;;;;;;19.42;12.65;;;;;;;13.47;34.58;101977.59;1814905;79;21872;-88
2021/04/11 08:58:19;;;;;;;14.55;11.48;;;;;;;14.06;33.88;101935.69;1839562;77;21124;-87
2021/04/11 09:14:02;;;;;;;12.25;8.93;;;;;;;14.18;33.78;101932.72;1815052;78;21158;-87
2021/04/11 09:25:03;;;;;;;10.93;7.97;;;;;;;14.57;33.69;101915.13;1820885;77;21151;-87
2021/04/11 09:36:47;;;;;;;11.45;8.18;;;;;;;14.78;32.10;101930.28;1819758;77;21581;-87
2021/04/11 09:39:44;;;;;;;12.73;8.00;;;;;;;14.90;32.51;101932.48;1830309;77;21529;-87
2021/04/11 09:55:36;;;;;;;12.35;7.53;;;;;;;15.05;31.40;101914.31;1829574;77;21180;-87
2021/04/11 09:58:51;;;;;;;10.35;6.90;;;;;;;15.19;31.93;101903.27;1841362;77;21160;-86
2021/04/11 10:02:03;;;;;;;10.20;6.78;;;;;;;15.31;32.99;101882.69;1822157;77;21189;-90
2021/04/11 10:05:32;;;;;;;;;;;;;;;;;;;;;
2021/04/11 10:08:38;;;;;;;11.65;7.47;;;;;;;15.80;31.65;101854.45;1887247;75;22705;-91
2021/04/11 10:12:26;;;;;;;9.78;7.35;;;;;;;15.75;31.09;101856.13;1773868;80;21120;-92
2021/04/11 10:15:13;;;;;;;12.33;6.70;;;;;;;15.79;29.45;101850.16;1848464;77;21245;-89
2021/04/11 10:18:10;;;;;;;9.25;6.83;;;;;;;15.82;29.17;101856.98;1847677;77;21595;-90
2021/04/11 10:21:19;;;;;;;11.40;6.70;;;;;;;15.83;28.52;101846.81;1848211;77;21521;-89
2021/04/11 10:24:09;;;;;;;8.28;6.70;;;;;;;15.81;27.33;101843.00;1848371;77;21202;-89
2021/04/11 10:26:42;;;;;;;9.45;6.90;;;;;;;15.69;27.90;101843.48;1816745;77;21126;-89
2021/04/11 10:29:19;;;;;;;7.80;6.17;;;;;;;15.63;27.96;101857.09;1802937;79;21566;-88
2021/04/11 10:32:19;;;;;;;10.70;7.03;;;;;;;15.69;28.73;101868.42;1848036;77;21139;-88
2021/04/11 10:37:52;;;;;;;9.73;7.10;;;;;;;15.80;28.96;101854.95;1886936;76;22783;-87
2021/04/11 10:40:49;;;;;;;11.08;7.62;;;;;;;15.88;29.86;101853.91;1848240;77;21183;-88
2021/04/11 10:44:08;;;;;;;9.40;7.25;;;;;;;15.98;29.35;101840.41;1848499;77;21368;-88
2021/04/11 10:46:56;;;;;;;9.85;7.95;;;;;;;15.97;29.70;101838.73;1848466;77;21183;-89
2021/04/11 10:50:21;;;;;;;10.03;8.15;;;;;;;16.09;29.20;101847.44;1825061;77;21112;-89
2021/04/11 10:53:14;;;;;;;11.60;8.23;;;;;;;16.11;28.49;101841.56;1811006;77;21174;-85
2021/04/11 10:56:03;;;;;;;9.35;7.55;;;;;;;16.05;26.75;101836.34;1803789;78;21118;-87
2021/04/11 10:58:40;;;;;;;10.13;8.10;;;;;;;16.04;26.94;101837.30;1793586;78;21453;-87
2021/04/11 11:01:38;;;;;;;10.45;8.43;;;;;;;16.07;27.29;101830.95;1786512;79;21139;-86
2021/04/11 11:05:02;;;;;;;9.38;6.90;;;;;;;16.12;27.21;101823.53;1845818;77;20992;-85
2021/04/11 11:07:36;;;;;;;11.50;6.75;;;;;;;16.16;27.86;101825.44;1848538;77;21096;-89
2021/04/11 11:10:36;;;;;;;8.70;6.58;;;;;;;16.28;28.03;101821.84;1773828;79;21116;-87
2021/04/11 11:14:06;;;;;;;9.60;7.35;;;;;;;16.42;25.48;101833.87;1848085;77;22264;-88
2021/04/11 11:18:58;;;;;;;8.78;7.87;;;;;;;16.42;26.96;101812.84;1833420;77;27526;-88
2021/04/11 11:31:15;;;;;;;9.48;8.50;;;;;;;16.48;26.58;101816.28;1799704;78;21202;-89
2021/04/11 11:34:55;;;;;;;7.85;6.97;;;;;;;16.49;26.91;101806.13;1682669;83;21190;-90
2021/04/11 11:37:57;;;;;;;10.08;6.87;;;;;;;16.59;26.57;101807.52;1741350;81;21470;-89
2021/04/11 11:59:32;;;;;;;9.48;6.92;;;;;;;16.94;26.64;101769.61;1784914;79;27924;-90
2021/04/11 12:02:31;;;;;;;8.83;7.00;;;;;;;16.97;26.32;101760.12;1715813;82;21147;-90
2021/04/11 12:05:31;;;;;;;9.58;6.55;;;;;;;17.00;26.18;101761.66;1714478;82;21839;-88
2021/04/11 12:11:50;;;;;;;9.58;7.30;;;;;;;16.96;26.91;101743.98;1784297;79;21543;-88
2021/04/11 12:14:29;;;;;;;10.28;6.67;;;;;;;16.95;25.90;101738.86;1781326;80;22208;-89
2021/04/11 12:17:27;;;;;;;17.92;7.65;;;;;;;16.93;26.56;101729.78;1782810;80;21164;-90
2021/04/11 12:20:29;;;;;;;8.43;6.85;;;;;;;16.94;26.55;101733.23;1760749;79;21172;-88
2021/04/11 12:23:19;;;;;;;9.83;6.92;;;;;;;16.94;26.26;101734.09;1753790;80;21176;-86
2021/04/11 12:25:48;;;;;;;13.43;6.60;;;;;;;16.95;26.72;101726.52;1788046;79;21314;-87
2021/04/11 12:28:26;;;;;;;9.98;5.97;;;;;;;16.99;25.86;101721.36;1750001;80;21172;-89
2021/04/11 12:31:26;;;;;;;9.28;6.90;;;;;;;16.98;26.35;101717.56;1784027;80;21486;-88
2021/04/11 12:34:31;;;;;;;9.15;6.05;;;;;;;16.99;25.97;101724.00;1784444;80;21141;-88
2021/04/11 12:37:29;;;;;;;10.32;6.70;;;;;;;16.96;26.64;101716.35;1784264;80;21535;-87
2021/04/11 12:46:56;;;;;;;7.58;5.80;;;;;;;16.87;25.69;101696.91;1786844;80;21091;-87
2021/04/11 12:50:02;;;;;;;9.73;6.83;;;;;;;16.90;27.34;101702.88;1788243;80;21350;-89
2021/04/11 12:52:42;;;;;;;9.35;6.53;;;;;;;16.97;26.78;101703.55;1787744;78;21106;-88
2021/04/11 12:55:35;;;;;;;10.00;6.65;;;;;;;16.91;26.54;101690.90;1787607;78;21533;-89
2021/04/11 12:58:29;;;;;;;9.10;7.17;;;;;;;16.85;27.29;101688.30;1774057;80;21444;-88
2021/04/11 13:01:17;;;;;;;9.73;6.90;;;;;;;16.80;26.79;101690.50;1796852;78;21143;-89
2021/04/11 13:04:15;;;;;;;10.88;6.97;;;;;;;16.71;26.84;101689.46;1790602;78;22204;-89
2021/04/11 13:07:25;;;;;;;9.23;6.62;;;;;;;16.62;26.59;101687.64;1788976;78;21132;-89
2021/04/11 13:10:17;;;;;;;;;;;;;;;16.53;26.73;101688.41;1789615;79;21169;-88
2021/04/11 13:13:19;;;;;;;;;;;;;;;16.41;27.20;101683.69;1767523;79;20610;-89
2021/04/11 13:16:22;;;;;;;11.50;6.30;;;;;;;16.35;27.90;101683.71;1799635;78;20547;-88
2021/04/11 13:19:15;;;;;;;9.53;6.53;;;;;;;16.36;27.71;101680.59;1794845;78;21532;-89
2021/04/11 13:21:59;;;;;;;12.85;7.40;;;;;;;16.39;27.83;101671.97;1730306;81;21179;-92
2021/04/11 13:24:45;;;;;;;11.95;7.08;;;;;;;16.46;27.04;101674.11;1792573;78;21543;-92
2021/04/11 13:27:40;;;;;;;9.75;6.90;;;;;;;16.53;28.25;101669.50;1792405;78;21171;-92
2021/04/11 13:30:28;;;;;;;13.08;8.15;;;;;;;16.59;27.13;101670.80;1790969;78;21631;-90
2021/04/11 13:33:05;;;;;;;7.92;6.92;;;;;;;16.59;27.02;101671.25;1790102;78;21337;-90
2021/04/11 13:35:58;;;;;;;10.72;7.65;;;;;;;16.58;27.72;101671.75;1790093;78;21126;-90
2021/04/11 13:38:36;;;;;;;10.08;6.53;;;;;;;16.59;27.57;101668.16;1774130;78;22352;-90
2021/04/11 13:41:56;;;;;;;10.70;7.55;;;;;;;16.59;27.08;101670.80;1798579;78;21163;-91
2021/04/11 13:44:47;;;;;;;10.03;7.40;;;;;;;16.58;27.07;101670.93;1802142;78;21163;-91
2021/04/11 13:47:39;;;;;;;12.37;7.75;;;;;;;16.54;27.03;101672.98;1791042;79;21375;-90
2021/04/11 13:50:19;;;;;;;10.65;7.22;;;;;;;16.54;28.04;101662.47;1760265;79;21159;-89
2021/04/11 13:53:02;;;;;;;13.13;6.97;;;;;;;16.57;27.40;101670.08;1779639;79;21138;-90
2021/04/11 13:55:49;;;;;;;10.90;6.35;;;;;;;16.58;26.73;101663.05;1777377;79;21105;-91
2021/04/11 13:58:26;;;;;;;8.60;7.15;;;;;;;16.59;26.67;101665.53;1765122;81;21559;-90
2021/04/11 14:01:01;;;;;;;8.53;6.72;;;;;;;16.57;27.30;101652.98;1768522;81;22264;-90
2021/04/11 14:03:45;;;;;;;8.58;6.28;;;;;;;16.58;27.99;101654.66;1766192;80;21572;-90
2021/04/11 14:06:22;;;;;;;10.45;7.10;;;;;;;16.59;27.76;101657.64;1749183;81;21163;-90
2021/04/11 14:09:02;;;;;;;8.73;6.83;;;;;;;16.60;27.50;101653.20;1766555;81;21164;-90
2021/04/11 14:12:08;;;;;;;9.88;7.67;;;;;;;16.58;26.91;101655.97;1801001;79;21150;-90
2021/04/11 14:14:59;;;;;;;12.18;7.22;;;;;;;16.53;27.11;101640.59;1802322;79;21179;-90
2021/04/11 14:17:47;;;;;;;12.18;6.75;;;;;;;16.48;27.65;101644.55;1776088;79;21569;-89
2021/04/11 14:20:45;;;;;;;8.53;6.37;;;;;;;16.47;25.46;101650.31;1776079;79;21155;-90
2021/04/11 14:23:48;;;;;;;8.05;6.33;;;;;;;16.46;26.37;101643.87;1779435;79;21961;-90
2021/04/11 14:26:47;;;;;;;15.30;7.72;;;;;;;16.44;26.03;101643.16;1773794;79;21150;-90
2021/04/11 14:29:37;;;;;;;9.25;7.80;;;;;;;16.43;26.39;101645.44;1756383;79;22398;-90
2021/04/11 14:32:24;;;;;;;9.85;7.28;;;;;;;16.41;26.69;101637.69;1773518;79;21210;-89
2021/04/11 14:35:21;;;;;;;10.03;6.80;;;;;;;16.39;27.06;101637.80;1774999;79;21161;-90
2021/04/11 14:38:03;;;;;;;8.63;6.78;;;;;;;16.37;26.03;101635.80;1777206;79;21171;-90
2021/04/11 14:40:45;;;;;;;8.75;7.05;;;;;;;16.33;25.79;101637.00;1770414;80;21142;-90
2021/04/11 14:43:26;;;;;;;12.47;7.08;;;;;;;16.27;25.84;101641.92;1769750;79;21391;-90
2021/04/11 14:46:03;;;;;;;9.05;6.85;;;;;;;16.21;25.94;101644.61;1759651;79;21104;-89
2021/04/11 14:48:36;;;;;;;12.23;7.72;;;;;;;16.14;26.63;101640.83;1766900;79;21566;-89
2021/04/11 14:51:38;;;;;;;9.53;6.30;;;;;;;16.09;26.61;101638.58;1776298;79;21112;-90
2021/04/11 14:54:46;;;;;;;7.75;6.22;;;;;;;16.02;27.23;101640.05;1770644;80;21197;-89
2021/04/11 14:57:38;;;;;;;9.10;7.20;;;;;;;15.93;27.57;101647.72;1774669;79;22087;-89
2021/04/11 15:00:38;;;;;;;9.10;6.95;;;;;;;15.84;27.90;101641.89;1740226;81;21251;-89
2021/04/11 15:03:27;;;;;;;13.18;8.88;;;;;;;15.77;27.62;101646.77;1713501;82;21239;-90
2021/04/11 15:06:11;;;;;;;11.05;7.22;;;;;;;15.68;27.53;101637.50;1772559;79;21149;-90
2021/04/11 15:09:12;;;;;;;11.48;7.53;;;;;;;15.60;27.59;101644.20;1774931;79;21136;-90
2021/04/11 15:11:51;;;;;;;10.50;7.00;;;;;;;15.55;27.06;101649.46;1769482;79;22346;-90
2021/04/11 15:14:34;;;;;;;7.53;6.47;;;;;;;15.49;27.88;101646.84;1773076;79;21199;-90
2021/04/11 15:20:27;;;;;;;13.08;8.63;;;;;;;15.38;27.76;101645.08;1794794;79;21172;-91
2021/04/11 15:23:19;;;;;;;14.83;7.78;;;;;;;15.31;28.41;101647.83;1757763;79;21407;-91
2021/04/11 15:26:18;;;;;;;15.10;7.85;;;;;;;15.27;28.74;101650.33;1729887;81;21141;-91
2021/04/11 15:28:52;;;;;;;15.25;8.10;;;;;;;15.20;29.24;101649.14;1740784;80;21536;-89
2021/04/11 15:31:26;;;;;;;12.35;7.47;;;;;;;15.12;29.63;101649.27;1728988;81;21167;-89
2021/04/11 15:34:09;;;;;;;14.13;7.80;;;;;;;15.06;29.81;101644.51;1744900;80;21226;-90
2021/04/11 15:37:28;;;;;;;15.08;8.15;;;;;;;15.01;29.98;101644.05;1722261;81;21702;-89
2021/04/11 15:40:08;;;;;;;17.12;9.33;;;;;;;14.95;29.80;101640.56;1754049;81;21151;-89
2021/04/11 15:43:03;;;;;;;28.38;15.72;;;;;;;14.90;29.51;101630.92;1746786;81;21130;-89
2021/04/11 15:45:45;;;;;;;44.77;20.82;;;;;;;14.86;30.09;101637.37;1737015;81;21148;-89
2021/04/11 15:48:44;;;;;;;15.90;10.40;;;;;;;14.78;30.18;101637.45;1739434;81;21175;-89
2021/04/11 15:51:40;;;;;;;11.85;8.53;;;;;;;14.73;30.35;101634.85;1741378;81;21159;-90
2021/04/11 15:54:51;;;;;;;11.60;7.58;;;;;;;14.65;30.70;101633.63;1740612;81;21179;-90
2021/04/11 15:57:37;;;;;;;43.65;25.35;;;;;;;14.58;30.91;101640.25;1685846;81;21135;-90
2021/04/11 16:00:23;;;;;;;75.12;50.33;;;;;;;14.48;31.71;101637.50;1727461;81;21198;-90
2021/04/11 16:03:19;;;;;;;21.95;14.35;;;;;;;14.40;30.83;101637.25;1728498;80;21174;-90
2021/04/11 16:05:53;;;;;;;95.22;50.60;;;;;;;14.33;31.26;101633.42;1698099;80;21107;-88
2021/04/11 16:08:24;;;;;;;41.95;26.23;;;;;;;14.25;31.00;101631.39;1705666;81;21222;-88
2021/04/11 16:11:16;;;;;;;15.70;9.73;;;;;;;14.18;30.97;101628.88;1754139;81;21162;-89
2021/04/11 16:14:05;;;;;;;17.52;11.18;;;;;;;14.11;31.14;101637.65;1752728;81;21591;-89
2021/04/11 16:17:13;;;;;;;20.70;8.20;;;;;;;14.02;31.42;101636.53;1732013;81;21135;-91
2021/04/11 16:20:09;;;;;;;65.67;34.67;;;;;;;13.94;31.37;101634.13;1664700;83;21723;-93
2021/04/11 16:23:05;;;;;;;37.58;22.13;;;;;;;13.85;31.56;101632.54;1733767;82;21148;-92
2021/04/11 16:25:51;;;;;;;39.33;17.10;;;;;;;13.79;31.63;101629.06;1740581;82;21612;-92
2021/04/11 16:28:58;;;;;;;21.33;11.90;;;;;;;13.73;31.47;101627.72;1740975;82;21080;-91